Aérodrome :
LOGIN :

S'inscrire | Disclaimer

   EN    FR    IT 

 










Légende :    VFR   VFR Marginal   IFR   IFR Intensif   IFR Très Intensif
Visi : 
Plafond : 
>= 8 km
>= 3000ft
5 à 8 km
1000 à 3000 ft
1500m à 5 km
500 à 1000 ft
800 à 1500m
200 à 500 ft
< 800m
< 200 ft
Symboles :   Orages  Brouillard  Fortes neiges  Fortes précipitations  Vent > 20 kt
SIGMETs :   Divers  Orages  Givrage  Turbulence  Onde Orograph.  Cendres Volcan.







- Altitude de l'aérodrome : 1791 ft
- Code IATA : AOT


LIMW - Aosta

METARs EXPIRÉS :
  • 211650Z AUTO 11012KT 9999 NCD 17/11 Q1017
  • 211620Z AUTO 11012KT 9999 NCD 17/11 Q1017
  • 211550Z AUTO 09011KT 9999 NCD 18/10 Q1016

TAF TAF LIMW
Valide du 21 à 15h jusqu'au 22 à 00h UTC


211400Z 2115/2124 10010KT 9999 SCT070
BECMG 2116/2118 VRB05KT
Pas de NOTAMs connus pour ce terrain.
2 SIGMETs publiés pour la FIR Milano (LIMM) :
 
Turbulence forte
LIMM SIGMET 5 VALID 211845/212045 LIIP
LIMM MILANO FIR SEV TURB FCST E OF LINE N4640 E01014 - N4326 E00856 FL280/380 STNR NC=
Turbulence forte
LIMM SIGMET 4 VALID 211730/211830 LIIP
LIMM MILANO FIR SEV TURB FCST E OF LINE N4640 E01014 - N4326 E00856 FL280/380 STNR NC=



MET'MAP, la Météo Aéronautique d'un coup d'oeil ! - Copyright ORBIFLY Décembre 2007 - Disclaimer

ORBIFLY MET'MAP TEAM :

Programmation & Développement : Alexandra Zaïnal
Conception & Développement : Baudouin d'Aumeries
Co-Programmation & Développement : Marc-Olivier Méhu
Soutien technique & logistique : Manuel Goepfert

Contact : metmap@orbifly.com




SOURCES & CREDITS :

   NOAA